Time;durP1;ratioP1;P1;durP2;ratioP2;P2;SDS_P1;SDS_P2;PMS_P1;PMS_P2;Temp;Humidity;BMP_temperature;BMP_pressure;BME280_temperature;BME280_humidity;BME280_pressure;Samples;Min_cycle;Max_cycle;Signal;HPM_P1;HPM_P2
2021/10/26 00:02:21;;;;;;;2.90;1.90;;;21.80;53.00;;;;;;5071388;28;20171;-78
2021/10/26 00:04:47;;;;;;;3.67;2.40;;;21.90;53.10;;;;;;5072012;28;20702;-78
2021/10/26 00:07:13;;;;;;;3.00;2.00;;;21.80;53.00;;;;;;5071261;28;20425;-78
2021/10/26 00:09:38;;;;;;;3.00;2.30;;;21.80;53.00;;;;;;5071693;28;20244;-79
2021/10/26 00:12:05;;;;;;;2.87;1.70;;;21.90;53.10;;;;;;5071384;28;20413;-78
2021/10/26 00:14:34;;;;;;;1.87;1.67;;;21.80;53.10;;;;;;5071310;28;20567;-78
2021/10/26 00:17:00;;;;;;;2.93;2.20;;;21.80;53.00;;;;;;5071427;28;20453;-78
2021/10/26 00:19:26;;;;;;;4.07;2.30;;;21.80;53.00;;;;;;5070894;28;20472;-78
2021/10/26 00:21:52;;;;;;;2.07;1.87;;;21.80;53.10;;;;;;5070770;28;20436;-78
2021/10/26 00:24:18;;;;;;;2.43;1.80;;;21.80;53.30;;;;;;5053695;28;20487;-78
2021/10/26 00:26:44;;;;;;;2.53;2.10;;;21.80;53.10;;;;;;5053719;28;20175;-78
2021/10/26 00:29:10;;;;;;;3.20;2.00;;;21.80;53.10;;;;;;5054025;28;20183;-78
2021/10/26 00:31:35;;;;;;;2.27;2.07;;;21.80;53.10;;;;;;5071044;28;20179;-78
2021/10/26 00:34:01;;;;;;;3.20;2.17;;;21.80;53.10;;;;;;5070940;28;20756;-79
2021/10/26 00:36:28;;;;;;;2.43;1.83;;;21.80;53.10;;;;;;5053729;28;20179;-78
2021/10/26 00:38:54;;;;;;;2.50;2.27;;;21.80;53.10;;;;;;5052958;28;20278;-78
2021/10/26 00:41:20;;;;;;;2.17;1.70;;;21.80;53.10;;;;;;5053696;28;20452;-78
2021/10/26 00:43:46;;;;;;;1.90;1.77;;;21.80;53.10;;;;;;5071575;28;20171;-78
2021/10/26 00:46:12;;;;;;;2.87;2.30;;;21.80;53.10;;;;;;5053679;28;20418;-78
2021/10/26 00:48:38;;;;;;;3.03;2.20;;;21.80;53.10;;;;;;5052423;28;20426;-79
2021/10/26 00:51:10;;;;;;;2.50;2.30;;;21.80;53.30;;;;;;5053397;28;20512;-79
2021/10/26 00:53:36;;;;;;;2.43;1.83;;;21.80;53.10;;;;;;5071560;28;20448;-78
2021/10/26 00:56:02;;;;;;;3.10;1.93;;;21.80;53.10;;;;;;5090556;28;20413;-79
2021/10/26 00:58:28;;;;;;;2.17;1.70;;;21.80;53.10;;;;;;5090325;28;20412;-80
2021/10/26 01:00:54;;;;;;;1.80;1.67;;;21.80;53.10;;;;;;5077148;28;20453;-78
2021/10/26 01:03:20;;;;;;;2.33;1.83;;;21.80;53.10;;;;;;5053102;28;20179;-79
2021/10/26 01:05:46;;;;;;;1.70;1.60;;;21.80;53.10;;;;;;5070303;28;20178;-79
2021/10/26 01:08:12;;;;;;;2.23;1.80;;;21.80;53.10;;;;;;5070979;28;20520;-79
2021/10/26 01:10:38;;;;;;;2.07;1.73;;;21.80;53.10;;;;;;5068841;28;20417;-79
2021/10/26 01:13:04;;;;;;;2.70;1.70;;;21.80;53.10;;;;;;5069627;28;20448;-79
2021/10/26 01:15:32;;;;;;;3.53;1.87;;;21.80;53.10;;;;;;5052254;28;20201;-79
2021/10/26 01:17:57;;;;;;;2.50;2.30;;;21.80;53.20;;;;;;5051685;28;20487;-78
2021/10/26 01:20:23;;;;;;;2.10;1.70;;;21.80;53.20;;;;;;5071150;28;20452;-79
2021/10/26 01:22:49;;;;;;;2.50;1.90;;;21.80;53.10;;;;;;5052701;28;20250;-79
2021/10/26 01:25:15;;;;;;;2.53;1.83;;;21.80;53.20;;;;;;5052660;28;20203;-79
2021/10/26 01:27:48;;;;;;;3.20;2.00;;;21.80;53.20;;;;;;5069595;28;20179;-78
2021/10/26 01:30:15;;;;;;;3.00;1.97;;;21.70;53.10;;;;;;5070448;28;20421;-79
2021/10/26 01:32:41;;;;;;;2.10;1.77;;;21.70;53.10;;;;;;5051921;28;20449;-79
2021/10/26 01:35:07;;;;;;;2.47;2.20;;;21.70;53.10;;;;;;5052617;28;20433;-76
2021/10/26 01:37:35;;;;;;;2.30;2.00;;;21.70;53.10;;;;;;5054329;28;20479;-77
2021/10/26 01:40:02;;;;;;;2.27;1.80;;;21.70;53.10;;;;;;5072354;28;20487;-77
2021/10/26 01:42:28;;;;;;;2.83;2.00;;;21.70;53.10;;;;;;5053910;28;20425;-76
2021/10/26 01:44:54;;;;;;;2.83;2.30;;;21.70;53.10;;;;;;5053643;28;20425;-77
2021/10/26 01:47:19;;;;;;;2.10;1.90;;;21.70;53.10;;;;;;5054210;28;20182;-77
2021/10/26 01:49:45;;;;;;;1.60;1.40;;;21.70;53.10;;;;;;5054237;28;20251;-76
2021/10/26 01:52:12;;;;;;;1.87;1.60;;;21.70;53.10;;;;;;5071210;28;20175;-76
2021/10/26 01:54:38;;;;;;;2.43;2.23;;;21.70;53.10;;;;;;5071509;28;20187;-77
2021/10/26 01:57:05;;;;;;;1.97;1.67;;;21.80;53.20;;;;;;5054418;28;20428;-76
2021/10/26 01:59:32;;;;;;;2.20;1.90;;;21.70;53.10;;;;;;5053809;28;20481;-77
2021/10/26 02:01:58;;;;;;;2.40;2.13;;;21.70;53.10;;;;;;5052987;28;20421;-76
2021/10/26 02:04:24;;;;;;;2.57;1.57;;;21.70;53.10;;;;;;5071565;28;20496;-76
2021/10/26 02:06:49;;;;;;;2.30;1.80;;;21.80;53.20;;;;;;5071910;28;20175;-77
2021/10/26 02:09:15;;;;;;;1.83;1.63;;;21.70;53.10;;;;;;5075897;28;20489;-76
2021/10/26 02:11:41;;;;;;;1.90;1.80;;;21.70;53.10;;;;;;5071095;28;20190;-77
2021/10/26 02:14:07;;;;;;;2.33;2.10;;;21.70;53.10;;;;;;5071208;28;20246;-77
2021/10/26 02:16:33;;;;;;;2.30;2.10;;;21.70;53.10;;;;;;5071320;28;20205;-77
2021/10/26 02:18:58;;;;;;;2.40;1.77;;;21.70;53.10;;;;;;5071557;28;20930;-77
2021/10/26 02:21:24;;;;;;;2.20;1.57;;;21.70;53.10;;;;;;5073718;28;20414;-76
2021/10/26 02:23:50;;;;;;;2.07;1.83;;;21.70;53.10;;;;;;5056717;28;20213;-76
2021/10/26 02:26:16;;;;;;;2.53;1.70;;;21.70;53.10;;;;;;5057404;28;20187;-76
2021/10/26 02:28:42;;;;;;;1.90;1.70;;;21.70;53.10;;;;;;5057988;28;20186;-77
2021/10/26 02:31:08;;;;;;;2.03;1.83;;;21.70;53.10;;;;;;5056321;28;20193;-76
2021/10/26 02:33:34;;;;;;;2.20;1.90;;;21.70;53.10;;;;;;5074610;28;20421;-76
2021/10/26 02:36:00;;;;;;;2.50;1.80;;;21.70;53.10;;;;;;5056742;28;20194;-77
2021/10/26 02:38:25;;;;;;;2.27;1.63;;;21.70;53.10;;;;;;5074099;28;20197;-76
2021/10/26 02:40:51;;;;;;;1.87;1.60;;;21.70;53.10;;;;;;5074338;28;20198;-77
2021/10/26 02:43:18;;;;;;;2.43;1.80;;;21.70;53.10;;;;;;5074594;28;20583;-76
2021/10/26 02:45:43;;;;;;;2.07;1.87;;;21.70;53.10;;;;;;5056534;28;20187;-77
2021/10/26 02:48:09;;;;;;;2.30;1.97;;;21.70;53.10;;;;;;5074469;28;20551;-76
2021/10/26 02:50:35;;;;;;;2.17;2.00;;;21.70;53.10;;;;;;5070553;28;20222;-77
2021/10/26 02:53:01;;;;;;;2.10;1.87;;;21.70;53.10;;;;;;5059608;28;20178;-77
2021/10/26 02:55:27;;;;;;;2.90;2.10;;;21.70;53.10;;;;;;5067601;28;20405;-77
2021/10/26 02:57:52;;;;;;;1.70;1.60;;;21.70;53.10;;;;;;5065758;28;20217;-77
2021/10/26 03:00:18;;;;;;;1.97;1.77;;;21.70;53.10;;;;;;5072496;28;20210;-78
2021/10/26 03:02:44;;;;;;;2.27;2.07;;;21.70;53.10;;;;;;5055077;28;20190;-76
2021/10/26 03:05:10;;;;;;;1.97;1.70;;;21.70;53.10;;;;;;5072512;28;20163;-76
2021/10/26 03:07:43;;;;;;;2.17;1.63;;;21.70;53.10;;;;;;5072887;28;20243;-77
2021/10/26 03:10:10;;;;;;;1.90;1.60;;;21.70;53.10;;;;;;5072686;28;20182;-76
2021/10/26 03:12:36;;;;;;;2.93;1.80;;;21.70;53.10;;;;;;5072519;28;20428;-77
2021/10/26 03:15:07;;;;;;;1.87;1.77;;;21.70;53.10;;;;;;5072471;28;20445;-77
2021/10/26 03:17:33;;;;;;;1.50;1.40;;;21.70;53.10;;;;;;5055140;28;20433;-76
2021/10/26 03:20:00;;;;;;;2.13;1.60;;;21.70;53.10;;;;;;5054720;28;20472;-75
2021/10/26 03:22:26;;;;;;;2.00;1.77;;;21.70;53.10;;;;;;5055280;28;20495;-75
2021/10/26 03:24:54;;;;;;;2.00;1.50;;;21.70;53.10;;;;;;5055278;28;20447;-79
2021/10/26 03:27:20;;;;;;;1.50;1.37;;;21.70;53.10;;;;;;5055806;28;20421;-76
2021/10/26 03:29:46;;;;;;;2.03;1.60;;;21.70;53.10;;;;;;5073501;28;20417;-76
2021/10/26 03:32:12;;;;;;;1.77;1.60;;;21.70;53.10;;;;;;5054269;28;20436;-76
2021/10/26 03:34:38;;;;;;;2.40;1.60;;;21.70;53.10;;;;;;5054234;28;20454;-76
2021/10/26 03:37:04;;;;;;;1.67;1.47;;;21.70;53.10;;;;;;5060603;28;20462;-76
2021/10/26 03:39:31;;;;;;;2.30;1.80;;;21.70;53.10;;;;;;5061003;28;20222;-75
2021/10/26 03:41:58;;;;;;;1.80;1.63;;;21.70;53.10;;;;;;5064630;28;20417;-76
2021/10/26 03:44:24;;;;;;;2.10;1.90;;;21.70;53.10;;;;;;5079789;28;20414;-76
2021/10/26 03:46:50;;;;;;;1.97;1.67;;;21.70;53.10;;;;;;5038249;28;20413;-75
2021/10/26 03:49:16;;;;;;;2.17;1.70;;;21.70;53.20;;;;;;5038516;28;20432;-75
2021/10/26 03:51:42;;;;;;;1.57;1.33;;;21.70;53.20;;;;;;5056049;28;20438;-75
2021/10/26 03:54:07;;;;;;;1.53;1.37;;;21.70;53.20;;;;;;5063943;28;20174;-76
2021/10/26 03:56:33;;;;;;;2.67;1.80;;;21.60;53.10;;;;;;5054351;28;20187;-75
2021/10/26 03:59:02;;;;;;;2.10;1.70;;;21.60;53.10;;;;;;5080859;28;20174;-75
2021/10/26 04:01:28;;;;;;;1.80;1.60;;;21.60;53.10;;;;;;5081579;28;20857;-76
2021/10/26 04:03:54;;;;;;;2.30;2.10;;;21.60;53.10;;;;;;5057799;28;20418;-76
2021/10/26 04:06:23;;;;;;;2.40;2.00;;;21.60;53.10;;;;;;5048606;28;20430;-76
2021/10/26 04:08:54;;;;;;;5.20;1.60;;;21.60;53.10;;;;;;5068974;28;20257;-75
2021/10/26 04:11:23;;;;;;;2.70;2.33;;;21.60;53.10;;;;;;5063983;28;20501;-76
2021/10/26 04:13:49;;;;;;;2.10;1.90;;;21.60;53.10;;;;;;5057130;28;20424;-76
2021/10/26 04:16:15;;;;;;;2.30;1.70;;;21.60;53.10;;;;;;5055399;28;20424;-76
2021/10/26 04:18:41;;;;;;;2.53;1.90;;;21.60;53.10;;;;;;5056370;28;20406;-76
2021/10/26 04:21:09;;;;;;;2.47;1.87;;;21.60;53.10;;;;;;5061608;28;20452;-75
2021/10/26 04:23:35;;;;;;;2.30;1.97;;;21.60;53.10;;;;;;5055325;28;20463;-75
2021/10/26 04:26:10;;;;;;;2.50;1.70;;;21.60;53.10;;;;;;5057159;28;20417;-80
2021/10/26 04:28:36;;;;;;;1.77;1.63;;;21.60;53.10;;;;;;5060378;28;20417;-75
2021/10/26 04:31:05;;;;;;;2.53;1.70;;;21.60;53.10;;;;;;5085070;28;20417;-77
2021/10/26 04:33:31;;;;;;;1.70;1.60;;;21.60;53.10;;;;;;5052813;28;20178;-75
2021/10/26 04:35:57;;;;;;;2.47;2.10;;;21.60;53.10;;;;;;5063362;28;20834;-76
2021/10/26 04:38:23;;;;;;;2.97;2.77;;;21.60;53.10;;;;;;5060629;28;20209;-76
2021/10/26 04:40:49;;;;;;;4.23;2.30;;;21.60;53.10;;;;;;5062506;28;20460;-75
2021/10/26 04:43:17;;;;;;;2.23;2.03;;;21.60;53.00;;;;;;5059833;28;20429;-77
2021/10/26 04:45:44;;;;;;;3.23;2.53;;;21.70;53.00;;;;;;5061753;28;20448;-76
2021/10/26 04:48:17;;;;;;;2.90;2.40;;;21.70;53.00;;;;;;5087902;28;20435;-77
2021/10/26 04:50:47;;;;;;;4.07;2.23;;;21.70;52.90;;;;;;5069281;28;20421;-75
2021/10/26 04:53:13;;;;;;;2.23;2.03;;;21.70;52.90;;;;;;5087195;28;20420;-76
2021/10/26 04:55:39;;;;;;;2.37;2.20;;;21.70;53.00;;;;;;5058488;28;20482;-76
2021/10/26 04:58:06;;;;;;;2.37;1.97;;;21.70;52.90;;;;;;5076470;28;20444;-76
2021/10/26 05:00:32;;;;;;;2.73;2.03;;;21.70;52.90;;;;;;5054035;28;20492;-76
2021/10/26 05:02:58;;;;;;;2.00;1.80;;;21.80;53.00;;;;;;5071673;28;20436;-76
2021/10/26 05:05:24;;;;;;;2.67;1.90;;;21.80;52.90;;;;;;5084952;28;20417;-76
2021/10/26 05:07:50;;;;;;;2.40;2.20;;;21.80;52.90;;;;;;5077541;28;20421;-76
2021/10/26 05:10:16;;;;;;;2.67;2.40;;;21.80;52.90;;;;;;5053378;28;20214;-78
2021/10/26 05:12:42;;;;;;;2.20;2.00;;;21.80;52.90;;;;;;5054005;28;20457;-76
2021/10/26 05:15:09;;;;;;;2.57;2.30;;;21.80;52.90;;;;;;5053213;28;20464;-78
2021/10/26 05:17:36;;;;;;;2.87;2.20;;;21.80;52.90;;;;;;5072335;28;20445;-74
2021/10/26 05:20:04;;;;;;;2.23;2.00;;;21.80;52.80;;;;;;5061181;28;20487;-76
2021/10/26 05:22:30;;;;;;;2.90;2.17;;;21.80;52.80;;;;;;5054191;28;20417;-76
2021/10/26 05:24:56;;;;;;;2.93;2.40;;;21.80;52.80;;;;;;5072186;28;20441;-75
2021/10/26 05:27:22;;;;;;;2.30;2.10;;;21.80;52.80;;;;;;5054594;28;20410;-78
2021/10/26 05:29:48;;;;;;;2.63;2.43;;;21.80;52.80;;;;;;5053517;28;20178;-78
2021/10/26 05:32:17;;;;;;;2.23;1.80;;;21.80;52.90;;;;;;5070701;28;20175;-78
2021/10/26 05:34:42;;;;;;;3.40;2.50;;;21.80;52.90;;;;;;5045573;28;20432;-77
2021/10/26 05:37:15;;;;;;;2.30;2.10;;;21.80;52.90;;;;;;5053306;28;20443;-79
2021/10/26 05:39:43;;;;;;;2.87;2.67;;;21.80;52.90;;;;;;5053265;28;20499;-78
2021/10/26 05:42:09;;;;;;;3.10;2.37;;;21.80;52.90;;;;;;5053386;28;20425;-77
2021/10/26 05:44:36;;;;;;;2.00;1.80;;;21.80;53.00;;;;;;5052868;28;20642;-77
2021/10/26 05:47:02;;;;;;;2.97;2.37;;;21.80;53.50;;;;;;5053062;28;20413;-77
2021/10/26 05:49:28;;;;;;;2.10;1.90;;;21.80;53.00;;;;;;5053954;28;20504;-78
2021/10/26 05:51:54;;;;;;;2.90;2.20;;;21.80;53.00;;;;;;5066494;28;20422;-77
2021/10/26 05:54:19;;;;;;;2.93;2.27;;;21.80;53.00;;;;;;5054328;28;20190;-77
2021/10/26 05:56:45;;;;;;;3.30;2.17;;;21.80;53.00;;;;;;5058294;28;20432;-78
2021/10/26 05:59:11;;;;;;;2.00;1.80;;;21.80;53.00;;;;;;5060413;28;20183;-77
2021/10/26 06:01:37;;;;;;;3.73;2.23;;;21.80;53.00;;;;;;5074925;28;20179;-77
2021/10/26 06:04:03;;;;;;;4.67;2.83;;;21.80;53.00;;;;;;5056843;28;20424;-76
2021/10/26 06:06:29;;;;;;;2.63;1.90;;;21.80;53.00;;;;;;5048804;28;20198;-78
2021/10/26 06:08:55;;;;;;;2.40;2.13;;;21.80;53.00;;;;;;5058386;28;20443;-77
2021/10/26 06:11:23;;;;;;;2.80;2.60;;;21.80;52.90;;;;;;5056930;28;20417;-78
2021/10/26 06:14:00;;;;;;;3.10;2.20;;;21.80;52.90;;;;;;5073530;28;20171;-78
2021/10/26 06:16:30;;;;;;;4.73;3.03;;;21.80;52.90;;;;;;5073939;28;20445;-77
2021/10/26 06:18:56;;;;;;;4.00;2.17;;;21.80;52.90;;;;;;5073572;28;20856;-78
2021/10/26 06:21:22;;;;;;;2.87;1.90;;;21.80;52.90;;;;;;5073780;28;20409;-79
2021/10/26 06:23:48;;;;;;;2.60;1.73;;;21.80;52.90;;;;;;5055831;28;20417;-78
2021/10/26 06:26:14;;;;;;;2.27;1.90;;;21.80;52.90;;;;;;5055955;28;20546;-77
2021/10/26 06:28:40;;;;;;;2.10;1.90;;;21.80;52.90;;;;;;5056512;28;20421;-77
2021/10/26 06:31:05;;;;;;;2.63;1.77;;;21.80;52.90;;;;;;5056118;28;20178;-77
2021/10/26 06:33:31;;;;;;;2.20;2.00;;;21.80;52.90;;;;;;5055872;28;20179;-78
2021/10/26 06:35:58;;;;;;;4.10;2.00;;;21.80;52.90;;;;;;5074261;28;20230;-78
2021/10/26 06:38:23;;;;;;;3.23;2.00;;;21.80;52.90;;;;;;5056589;28;20432;-77
2021/10/26 06:40:50;;;;;;;2.83;1.90;;;21.80;52.90;;;;;;5056186;28;20528;-76
2021/10/26 06:43:16;;;;;;;2.30;2.10;;;21.80;52.90;;;;;;5073732;28;20171;-77
2021/10/26 06:45:41;;;;;;;3.80;1.83;;;21.80;52.80;;;;;;5055840;28;20508;-77
2021/10/26 06:48:07;;;;;;;2.33;2.03;;;21.80;52.80;;;;;;5055696;28;20274;-78
2021/10/26 06:50:33;;;;;;;2.63;1.90;;;21.80;52.80;;;;;;5055505;28;20187;-78
2021/10/26 06:52:59;;;;;;;2.30;2.00;;;21.80;52.80;;;;;;5073336;28;20179;-79
2021/10/26 06:55:25;;;;;;;2.00;1.80;;;21.80;52.80;;;;;;5055850;28;20818;-78
2021/10/26 06:57:52;;;;;;;2.10;1.90;;;21.90;52.90;;;;;;5039604;28;20420;-78
2021/10/26 07:00:19;;;;;;;1.97;1.77;;;21.80;52.80;;;;;;5055812;28;20464;-78
2021/10/26 07:02:50;;;;;;;1.90;1.80;;;21.90;52.90;;;;;;5056064;28;20413;-78
2021/10/26 07:05:17;;;;;;;2.00;1.63;;;21.80;52.80;;;;;;5055628;28;20413;-78
2021/10/26 07:07:43;;;;;;;2.17;1.93;;;21.90;52.90;;;;;;5072181;28;20469;-77
2021/10/26 07:10:09;;;;;;;2.03;1.83;;;21.90;52.90;;;;;;5062004;28;20414;-78
2021/10/26 07:12:37;;;;;;;1.87;1.77;;;21.80;52.80;;;;;;5073447;28;20171;-78
2021/10/26 07:15:06;;;;;;;3.23;2.10;;;21.80;52.90;;;;;;5080448;28;20439;-77
2021/10/26 07:17:33;;;;;;;2.73;1.90;;;21.80;52.90;;;;;;5055811;28;20938;-77
2021/10/26 07:19:59;;;;;;;2.00;1.43;;;21.90;52.90;;;;;;5039047;28;20523;-79
2021/10/26 07:22:25;;;;;;;2.10;1.90;;;21.80;52.90;;;;;;5065745;28;20508;-78
2021/10/26 07:24:59;;;;;;;2.60;2.13;;;21.80;53.40;;;;;;5061132;28;20437;-78
2021/10/26 07:27:26;;;;;;;3.10;2.10;;;21.80;52.80;;;;;;5090724;28;20818;-78
2021/10/26 07:29:52;;;;;;;2.27;2.00;;;21.80;52.90;;;;;;5075019;28;20426;-78
2021/10/26 07:32:21;;;;;;;2.30;1.70;;;21.80;52.80;;;;;;5092402;28;20415;-78
2021/10/26 07:34:47;;;;;;;2.07;1.87;;;21.80;52.90;;;;;;5092144;28;20451;-78
2021/10/26 07:37:14;;;;;;;2.30;1.80;;;21.90;52.90;;;;;;5075495;28;20439;-78
2021/10/26 07:39:48;;;;;;;2.10;1.90;;;21.90;52.90;;;;;;5092696;28;20453;-78
2021/10/26 07:42:19;;;;;;;2.47;1.90;;;21.90;52.90;;;;;;5093209;28;20387;-78
2021/10/26 07:44:49;;;;;;;2.07;1.87;;;21.90;52.90;;;;;;5052417;28;20474;-78
2021/10/26 07:47:16;;;;;;;2.97;1.77;;;21.90;52.80;;;;;;5052350;28;20391;-77
2021/10/26 07:49:45;;;;;;;2.80;2.10;;;21.90;52.80;;;;;;5034572;28;20478;-78
2021/10/26 07:52:13;;;;;;;2.57;1.90;;;21.90;52.80;;;;;;5035253;28;20501;-77
2021/10/26 07:54:39;;;;;;;3.03;1.80;;;21.90;52.80;;;;;;5051901;28;20417;-76
2021/10/26 07:57:05;;;;;;;2.03;1.50;;;21.90;52.80;;;;;;5052060;28;20406;-78
2021/10/26 07:59:31;;;;;;;2.00;1.80;;;21.90;52.80;;;;;;5034996;28;20458;-78
2021/10/26 08:02:01;;;;;;;3.00;1.80;;;21.90;52.80;;;;;;5066654;28;20425;-78
2021/10/26 08:04:26;;;;;;;2.60;2.17;;;21.90;52.80;;;;;;5054789;28;20405;-78
2021/10/26 08:06:54;;;;;;;2.50;2.07;;;21.90;52.80;;;;;;5054590;28;20433;-78
2021/10/26 08:09:19;;;;;;;1.97;1.70;;;21.90;52.80;;;;;;5055259;28;20178;-78
2021/10/26 08:11:46;;;;;;;3.47;2.30;;;21.90;52.80;;;;;;5072697;28;20413;-77
2021/10/26 08:14:12;;;;;;;1.77;1.63;;;21.90;52.80;;;;;;5054388;28;20417;-79
2021/10/26 08:16:39;;;;;;;3.00;2.20;;;21.90;52.80;;;;;;5053838;28;20478;-78
2021/10/26 08:19:06;;;;;;;2.80;1.50;;;21.90;52.80;;;;;;5054064;28;20440;-80
2021/10/26 08:21:32;;;;;;;1.90;1.70;;;21.90;52.80;;;;;;5071724;28;20489;-78
2021/10/26 08:23:58;;;;;;;2.40;2.20;;;21.90;52.80;;;;;;5054257;28;20453;-77
2021/10/26 08:26:28;;;;;;;2.00;1.80;;;21.90;52.80;;;;;;5054109;28;20424;-77
2021/10/26 08:29:05;;;;;;;2.17;1.70;;;21.90;52.80;;;;;;5053976;28;20417;-78
2021/10/26 08:31:40;;;;;;;2.37;2.17;;;21.90;52.80;;;;;;5072215;28;20385;-78
2021/10/26 08:36:55;;;;;;;2.00;1.80;;;21.90;52.90;;;;;;5049477;28;20445;-78
2021/10/26 08:39:21;;;;;;;2.23;1.70;;;21.90;52.90;;;;;;5074296;28;20452;-78
2021/10/26 08:41:49;;;;;;;6.90;2.33;;;21.90;52.90;;;;;;5074096;28;20416;-78
2021/10/26 08:44:16;;;;;;;3.50;2.30;;;21.90;52.90;;;;;;5064536;28;20242;-78
2021/10/26 08:46:49;;;;;;;2.20;2.00;;;21.90;52.90;;;;;;5053913;28;20401;-78
2021/10/26 08:49:18;;;;;;;2.43;1.97;;;21.90;52.90;;;;;;5072197;28;20386;-78
2021/10/26 08:51:47;;;;;;;2.53;1.90;;;21.90;52.90;;;;;;5061280;28;20419;-78
2021/10/26 08:54:13;;;;;;;2.47;2.00;;;21.90;52.90;;;;;;5075745;28;20408;-77
2021/10/26 08:56:39;;;;;;;1.97;1.80;;;21.90;52.90;;;;;;5064901;28;20432;-78
2021/10/26 08:59:06;;;;;;;2.57;2.10;;;21.90;52.90;;;;;;5054947;28;20471;-78
2021/10/26 09:01:33;;;;;;;2.00;1.77;;;21.90;52.90;;;;;;5054206;28;20847;-78
2021/10/26 09:04:12;;;;;;;2.00;1.90;;;21.90;52.90;;;;;;5054414;28;20425;-79
2021/10/26 09:06:51;;;;;;;2.53;1.80;;;21.90;52.80;;;;;;5066983;28;20416;-78
2021/10/26 09:09:23;;;;;;;5.13;2.17;;;21.90;52.80;;;;;;5064537;28;20448;-78
2021/10/26 09:17:53;;;;;;;4.33;1.80;;;21.90;52.80;;;;;;5069790;28;20408;-78
2021/10/26 09:20:23;;;;;;;2.20;1.70;;;21.90;52.90;;;;;;5087127;28;20452;-78
2021/10/26 09:22:55;;;;;;;1.67;1.57;;;21.90;52.90;;;;;;5076487;28;20421;-77
2021/10/26 09:25:42;;;;;;;4.57;2.23;;;21.90;52.90;;;;;;5070495;28;20441;-78
2021/10/26 09:28:10;;;;;;;2.00;1.70;;;21.90;52.90;;;;;;5073083;28;20503;-78
2021/10/26 09:30:36;;;;;;;3.93;2.03;;;21.90;52.90;;;;;;5073519;28;20488;-77
2021/10/26 09:33:02;;;;;;;2.63;1.80;;;21.90;52.90;;;;;;5094549;28;20427;-78
2021/10/26 09:35:27;;;;;;;1.93;1.80;;;21.90;52.90;;;;;;5076558;28;20416;-78
2021/10/26 09:37:57;;;;;;;2.60;1.90;;;21.90;52.90;;;;;;5094575;28;20170;-78
2021/10/26 09:40:40;;;;;;;2.10;1.90;;;21.90;52.90;;;;;;5061430;28;20223;-79
2021/10/26 09:43:11;;;;;;;1.57;1.47;;;21.90;53.00;;;;;;5057048;28;20439;-77
2021/10/26 09:45:38;;;;;;;2.40;2.00;;;22.00;53.10;;;;;;5040287;28;20437;-78
2021/10/26 09:48:14;;;;;;;1.60;1.50;;;22.00;53.00;;;;;;5057143;28;20928;-78
2021/10/26 09:50:42;;;;;;;3.07;1.90;;;22.00;53.00;;;;;;5075066;28;20405;-78
2021/10/26 09:53:14;;;;;;;2.10;1.90;;;21.90;52.90;;;;;;5074333;28;20416;-78
2021/10/26 09:55:41;;;;;;;1.87;1.63;;;22.00;53.00;;;;;;5074335;28;20513;-78
2021/10/26 09:58:17;;;;;;;2.30;1.97;;;22.00;53.00;;;;;;5088169;28;20429;-78
2021/10/26 10:00:50;;;;;;;2.73;2.00;;;22.00;53.00;;;;;;5092395;28;20446;-78
2021/10/26 10:03:30;;;;;;;2.27;2.07;;;22.00;53.00;;;;;;5071232;28;20492;-78
2021/10/26 10:05:56;;;;;;;1.37;1.27;;;22.00;53.00;;;;;;5094351;28;20385;-78
2021/10/26 10:08:39;;;;;;;1.50;1.40;;;21.90;52.90;;;;;;5093852;28;20424;-79
2021/10/26 10:11:09;;;;;;;2.50;1.90;;;22.00;52.90;;;;;;5080943;28;20229;-78
2021/10/26 10:13:40;;;;;;;2.43;1.93;;;21.90;52.90;;;;;;5055856;28;20459;-79
2021/10/26 10:16:14;;;;;;;2.23;1.67;;;21.90;52.90;;;;;;5074193;28;20465;-78
2021/10/26 10:18:45;;;;;;;2.40;1.73;;;21.90;52.90;;;;;;5055734;28;20919;-79
2021/10/26 10:21:14;;;;;;;2.33;1.67;;;22.00;52.90;;;;;;5073491;28;20452;-78
2021/10/26 10:23:46;;;;;;;2.00;1.80;;;22.00;52.90;;;;;;5056024;28;20408;-79
2021/10/26 10:26:14;;;;;;;1.77;1.67;;;22.00;52.90;;;;;;5051694;28;20776;-78
2021/10/26 10:28:45;;;;;;;2.27;1.77;;;22.00;52.90;;;;;;5054952;28;20493;-78
2021/10/26 10:31:16;;;;;;;2.43;1.70;;;22.00;52.90;;;;;;5054987;28;20425;-78
2021/10/26 10:33:49;;;;;;;1.83;1.63;;;22.00;52.90;;;;;;5073126;28;20461;-78
2021/10/26 10:36:25;;;;;;;2.13;1.70;;;22.00;52.90;;;;;;5073547;28;20433;-79
2021/10/26 10:38:52;;;;;;;2.13;1.93;;;22.00;52.90;;;;;;5036274;28;20438;-79
2021/10/26 10:41:37;;;;;;;1.80;1.70;;;22.00;52.90;;;;;;5067390;28;20461;-79
2021/10/26 10:44:06;;;;;;;1.70;1.50;;;22.00;52.80;;;;;;5056392;28;20428;-78
2021/10/26 10:46:42;;;;;;;2.00;1.80;;;22.00;52.90;;;;;;5055323;28;20422;-79
2021/10/26 10:49:27;;;;;;;2.73;1.80;;;22.00;52.90;;;;;;5072654;28;20421;-79
2021/10/26 10:51:53;;;;;;;1.67;1.57;;;22.10;52.90;;;;;;5072582;28;20400;-80
2021/10/26 10:54:49;;;;;;;2.07;1.83;;;22.00;52.80;;;;;;5073446;28;20413;-78
2021/10/26 10:57:32;;;;;;;1.90;1.60;;;22.10;52.90;;;;;;5021096;28;20436;-79
2021/10/26 11:00:03;;;;;;;2.23;1.97;;;22.00;52.80;;;;;;5056018;28;20467;-79
2021/10/26 11:02:53;;;;;;;1.53;1.43;;;22.00;52.80;;;;;;5055608;28;20477;-79
2021/10/26 11:05:37;;;;;;;2.10;1.80;;;22.10;52.90;;;;;;5072178;28;20439;-79
2021/10/26 11:08:07;;;;;;;2.60;2.17;;;22.10;52.90;;;;;;5063926;28;20440;-79
2021/10/26 11:10:51;;;;;;;2.50;2.20;;;22.00;52.80;;;;;;5054989;28;20851;-79
2021/10/26 11:13:26;;;;;;;3.60;1.97;;;22.10;52.90;;;;;;5073861;28;20417;-79
2021/10/26 11:15:54;;;;;;;2.70;2.40;;;22.10;52.90;;;;;;5055102;28;20421;-79
2021/10/26 11:18:39;;;;;;;3.57;2.10;;;22.10;52.90;;;;;;5055513;28;20409;-78
2021/10/26 11:21:27;;;;;;;2.40;2.13;;;22.10;52.80;;;;;;5071072;28;20457;-78
2021/10/26 11:23:59;;;;;;;2.10;1.80;;;22.10;52.90;;;;;;5080248;28;20431;-79
2021/10/26 11:26:42;;;;;;;2.83;2.17;;;22.10;52.90;;;;;;5072463;28;20402;-79
2021/10/26 11:29:28;;;;;;;3.30;2.40;;;22.10;52.90;;;;;;5072254;28;20410;-77
2021/10/26 11:31:54;;;;;;;2.60;2.27;;;22.10;52.80;;;;;;5055930;28;20437;-78
2021/10/26 11:34:27;;;;;;;3.90;2.10;;;22.10;52.90;;;;;;5072936;28;20397;-79
2021/10/26 11:37:06;;;;;;;5.40;2.40;;;22.10;52.90;;;;;;5073447;28;20414;-78
2021/10/26 11:39:32;;;;;;;4.63;2.10;;;22.10;52.90;;;;;;5054261;28;20485;-78
2021/10/26 11:42:25;;;;;;;2.77;2.10;;;22.10;52.90;;;;;;5051436;28;20417;-78
2021/10/26 11:44:51;;;;;;;2.20;1.90;;;22.10;52.90;;;;;;5052598;28;20394;-78
2021/10/26 11:47:17;;;;;;;3.73;2.70;;;22.10;52.90;;;;;;5052294;28;20410;-79
2021/10/26 11:49:43;;;;;;;4.73;2.53;;;22.10;52.90;;;;;;5051923;28;20168;-78
2021/10/26 11:52:15;;;;;;;3.07;2.03;;;22.10;53.00;;;;;;5071740;28;20419;-79
2021/10/26 11:54:52;;;;;;;3.20;2.10;;;22.10;52.90;;;;;;5073026;28;20254;-78
2021/10/26 11:57:22;;;;;;;3.87;2.20;;;22.10;52.90;;;;;;5072845;28;20401;-78
2021/10/26 12:00:08;;;;;;;3.97;2.10;;;22.10;53.00;;;;;;5051057;28;20450;-79
2021/10/26 12:02:34;;;;;;;2.63;2.03;;;22.10;53.00;;;;;;5054562;28;20479;-79
2021/10/26 12:05:03;;;;;;;4.90;2.47;;;22.10;53.00;;;;;;5054026;28;20421;-78
2021/10/26 12:07:32;;;;;;;5.33;2.00;;;22.10;53.00;;;;;;5071814;28;20234;-78
2021/10/26 12:10:00;;;;;;;4.40;2.63;;;22.10;53.00;;;;;;5054429;28;20877;-79
2021/10/26 12:12:31;;;;;;;5.30;2.30;;;22.10;53.00;;;;;;5057652;28;20422;-76
2021/10/26 12:14:59;;;;;;;3.57;2.20;;;22.10;53.00;;;;;;5092278;28;20427;-76
2021/10/26 12:17:26;;;;;;;3.23;2.20;;;22.10;53.00;;;;;;5075591;28;20440;-76
2021/10/26 12:20:10;;;;;;;4.53;2.60;;;22.10;53.00;;;;;;5055234;28;20450;-76
2021/10/26 12:22:41;;;;;;;3.03;2.73;;;22.10;53.00;;;;;;5052298;28;20421;-77
2021/10/26 12:25:24;;;;;;;2.87;1.70;;;22.10;53.00;;;;;;5074690;28;20429;-77
2021/10/26 12:28:13;;;;;;;3.63;2.30;;;22.10;53.00;;;;;;5075447;28;20398;-77
2021/10/26 12:30:41;;;;;;;3.23;2.40;;;22.10;53.00;;;;;;5069904;28;20421;-77
2021/10/26 12:33:06;;;;;;;2.80;2.53;;;22.10;53.00;;;;;;5078319;28;20409;-75
2021/10/26 12:35:41;;;;;;;3.97;2.30;;;22.10;53.00;;;;;;5059762;28;20470;-76
2021/10/26 12:38:22;;;;;;;3.00;2.40;;;22.10;53.00;;;;;;5059258;28;20142;-76
2021/10/26 12:40:50;;;;;;;5.50;2.30;;;22.10;53.00;;;;;;5052894;28;20476;-76
2021/10/26 12:43:23;;;;;;;3.00;2.00;;;22.10;53.00;;;;;;5039251;28;20415;-76
2021/10/26 12:45:51;;;;;;;2.83;2.07;;;22.10;53.00;;;;;;5056864;28;20478;-76
2021/10/26 12:48:17;;;;;;;2.90;2.47;;;22.10;53.00;;;;;;5039463;28;20520;-77
2021/10/26 12:50:53;;;;;;;2.20;2.00;;;22.10;53.00;;;;;;5056485;28;20897;-76
2021/10/26 12:53:39;;;;;;;4.87;2.50;;;22.10;53.00;;;;;;5077744;28;20463;-76
2021/10/26 12:56:19;;;;;;;3.53;2.77;;;22.10;53.00;;;;;;5078947;28;20406;-76
2021/10/26 12:58:55;;;;;;;3.87;2.60;;;22.10;53.00;;;;;;5059191;28;20416;-76
2021/10/26 13:01:21;;;;;;;3.70;2.10;;;22.10;53.10;;;;;;5042699;28;20494;-76
2021/10/26 13:04:04;;;;;;;3.60;2.43;;;22.10;53.10;;;;;;5058593;28;20413;-77
2021/10/26 13:06:34;;;;;;;3.00;2.30;;;22.10;53.10;;;;;;5058353;28;20477;-76